createdAt,value
2019-02-26T00:01:01.193Z,56.69
2019-02-26T00:03:33.076Z,56.65
2019-02-26T00:06:01.558Z,56.61
2019-02-26T00:08:29.659Z,56.59
2019-02-26T00:11:00.781Z,56.41
2019-02-26T00:13:27.668Z,56.27
2019-02-26T00:15:55.950Z,56.09
2019-02-26T00:18:23.570Z,56.01
2019-02-26T00:20:50.725Z,55.99
2019-02-26T00:23:19.813Z,56.07
2019-02-26T00:25:46.826Z,56.18
2019-02-26T00:28:15.867Z,56.28
2019-02-26T00:30:42.900Z,56.33
2019-02-26T00:33:10.000Z,56.37
2019-02-26T00:35:37.116Z,56.37
2019-02-26T00:38:06.128Z,56.37
2019-02-26T00:40:34.937Z,56.35
2019-02-26T00:43:04.331Z,56.33
2019-02-26T00:45:32.317Z,56.29
2019-02-26T00:48:00.202Z,56.24
2019-02-26T00:50:28.122Z,56.21
2019-02-26T00:52:57.077Z,56.13
2019-02-26T00:55:27.526Z,56.13
2019-02-26T00:57:56.786Z,56.15
2019-02-26T01:00:24.625Z,56.23
2019-02-26T01:02:52.215Z,56.22
2019-02-26T01:05:19.298Z,56.19
2019-02-26T01:07:48.893Z,56.24
2019-02-26T01:10:16.410Z,56.35
2019-02-26T01:12:44.360Z,56.34
2019-02-26T01:15:13.917Z,56.35
2019-02-26T01:17:42.226Z,56.40
2019-02-26T01:20:11.569Z,56.42
2019-02-26T01:22:40.249Z,56.34
2019-02-26T01:25:10.109Z,56.40
2019-02-26T01:27:37.043Z,56.41
2019-02-26T01:30:05.290Z,56.42
2019-02-26T01:32:32.383Z,56.50
2019-02-26T01:35:00.947Z,56.48
2019-02-26T01:37:29.964Z,56.52
2019-02-26T01:39:57.464Z,56.46
2019-02-26T01:42:25.362Z,56.44
2019-02-26T01:44:53.535Z,56.50
2019-02-26T01:47:21.840Z,56.54
2019-02-26T01:49:51.120Z,56.55
2019-02-26T01:52:18.346Z,56.60
2019-02-26T01:54:45.434Z,56.65
2019-02-26T01:57:12.522Z,56.70
2019-02-26T01:59:39.610Z,56.77
2019-02-26T02:02:06.696Z,56.89
2019-02-26T02:04:34.298Z,56.99
2019-02-26T02:07:04.225Z,56.89
2019-02-26T02:09:32.080Z,56.91
2019-02-26T02:12:00.079Z,56.96
2019-02-26T02:14:28.178Z,56.98
2019-02-26T02:16:55.283Z,57.08
2019-02-26T02:19:24.761Z,57.17
2019-02-26T02:21:52.061Z,57.40
2019-02-26T02:24:22.265Z,57.54
2019-02-26T02:26:50.429Z,57.76
2019-02-26T02:29:19.202Z,57.86
2019-02-26T02:31:47.376Z,57.98
2019-02-26T02:34:14.456Z,58.06
2019-02-26T02:36:41.573Z,58.17
2019-02-26T02:39:13.018Z,58.30
2019-02-26T02:41:42.077Z,58.32
2019-02-26T02:44:12.333Z,58.37
2019-02-26T02:46:39.261Z,58.43
2019-02-26T02:49:07.510Z,58.62
2019-02-26T02:51:37.156Z,58.77
2019-02-26T02:54:04.710Z,59.00
2019-02-26T02:56:33.376Z,59.12
2019-02-26T02:59:00.808Z,59.12
2019-02-26T03:01:28.657Z,59.27
2019-02-26T03:03:59.030Z,59.37
2019-02-26T03:06:28.216Z,59.52
2019-02-26T03:08:54.984Z,59.61
2019-02-26T03:11:22.084Z,59.75
2019-02-26T03:13:51.226Z,59.75
2019-02-26T03:16:19.448Z,59.75
2019-02-26T03:18:47.169Z,59.87
2019-02-26T03:21:16.193Z,59.92
2019-02-26T03:23:45.497Z,59.97
2019-02-26T03:26:14.679Z,59.95
2019-02-26T03:28:42.128Z,59.96
2019-02-26T03:31:10.247Z,59.98
2019-02-26T03:33:37.326Z,60.11
2019-02-26T03:36:08.557Z,60.14
2019-02-26T03:38:35.250Z,60.16
2019-02-26T03:41:03.651Z,60.18
2019-02-26T03:43:31.389Z,60.11
2019-02-26T03:45:59.862Z,60.12
2019-02-26T03:48:26.948Z,60.04
2019-02-26T03:50:54.042Z,59.97
2019-02-26T03:53:25.559Z,59.93
2019-02-26T03:55:50.325Z,59.96
2019-02-26T03:58:17.667Z,60.04
2019-02-26T04:00:46.850Z,60.11
2019-02-26T04:03:15.133Z,60.09
2019-02-26T04:05:43.365Z,60.09
2019-02-26T04:08:10.657Z,60.04
2019-02-26T04:10:37.742Z,59.98
2019-02-26T04:13:04.823Z,59.97
2019-02-26T04:15:33.515Z,59.92
2019-02-26T04:18:00.921Z,59.86
2019-02-26T04:20:28.031Z,59.89
2019-02-26T04:22:56.815Z,59.85
2019-02-26T04:25:49.483Z,59.85
2019-02-26T04:28:27.238Z,59.88
2019-02-26T04:31:29.321Z,59.84
2019-02-26T04:34:12.815Z,59.85
2019-02-26T04:37:12.886Z,59.89
2019-02-26T04:40:11.033Z,59.99
2019-02-26T04:43:25.432Z,60.05
2019-02-26T04:46:21.843Z,60.11
2019-02-26T04:48:49.283Z,60.13
2019-02-26T04:51:16.334Z,60.23
2019-02-26T04:53:43.393Z,60.32
2019-02-26T04:56:12.839Z,60.39
2019-02-26T04:58:40.363Z,60.35
2019-02-26T05:01:10.109Z,60.24
2019-02-26T05:03:37.459Z,60.13
2019-02-26T05:06:05.909Z,60.14
2019-02-26T05:08:37.113Z,60.11
2019-02-26T05:11:02.489Z,60.05
2019-02-26T05:13:34.530Z,59.98
2019-02-26T05:16:01.263Z,59.88
2019-02-26T05:18:29.065Z,59.73
2019-02-26T05:20:59.158Z,59.64
2019-02-26T05:23:28.281Z,59.48
2019-02-26T05:25:59.754Z,59.41
2019-02-26T05:28:24.942Z,59.23
2019-02-26T05:30:52.007Z,59.05
2019-02-26T05:33:21.631Z,58.90
2019-02-26T05:35:49.005Z,58.66
2019-02-26T05:38:17.036Z,58.65
2019-02-26T05:40:45.188Z,58.54
2019-02-26T05:43:13.076Z,58.46
2019-02-26T05:45:40.131Z,58.35
2019-02-26T05:48:07.373Z,58.23
2019-02-26T05:50:35.535Z,58.29
2019-02-26T05:53:05.510Z,58.21
2019-02-26T05:55:32.371Z,58.05
2019-02-26T05:57:59.448Z,58.02
2019-02-26T06:00:30.612Z,57.82
2019-02-26T06:02:55.472Z,57.67
2019-02-26T06:05:23.197Z,57.37
2019-02-26T06:07:52.204Z,57.23
2019-02-26T06:10:21.489Z,57.18
2019-02-26T06:12:48.460Z,57.16
2019-02-26T06:15:15.518Z,56.99
2019-02-26T06:17:45.217Z,56.90
2019-02-26T06:20:14.635Z,56.78
2019-02-26T06:22:41.694Z,56.77
2019-02-26T06:25:13.893Z,56.81
2019-02-26T06:27:37.750Z,56.82
2019-02-26T06:30:07.319Z,56.75
2019-02-26T06:32:36.742Z,56.66
2019-02-26T06:35:06.701Z,56.53
2019-02-26T06:37:35.544Z,56.59
2019-02-26T06:40:05.207Z,56.59
2019-02-26T06:42:33.763Z,56.53
2019-02-26T06:45:03.995Z,56.47
2019-02-26T06:47:32.896Z,56.62
2019-02-26T06:49:59.947Z,56.55
2019-02-26T06:52:27.022Z,56.54
2019-02-26T06:54:57.260Z,56.41
2019-02-26T06:57:23.072Z,56.34
2019-02-26T06:59:51.015Z,56.10
2019-02-26T07:02:19.113Z,55.95
2019-02-26T07:04:46.230Z,56.03
2019-02-26T07:07:14.424Z,55.97
2019-02-26T07:09:43.759Z,55.85
2019-02-26T07:12:10.670Z,55.78
2019-02-26T07:14:37.727Z,55.61
2019-02-26T07:17:06.103Z,55.63
2019-02-26T07:19:35.640Z,55.61
2019-02-26T07:22:02.211Z,55.44
2019-02-26T07:24:29.392Z,55.51
2019-02-26T07:26:56.448Z,55.58
2019-02-26T07:29:23.553Z,55.40
2019-02-26T07:31:51.876Z,55.22
2019-02-26T07:34:20.607Z,55.07
2019-02-26T07:36:50.706Z,55.16
2019-02-26T07:39:20.916Z,55.06
2019-02-26T07:41:49.300Z,54.86
2019-02-26T07:44:18.870Z,55.03
2019-02-26T07:46:45.771Z,54.88
2019-02-26T07:49:12.852Z,54.78
2019-02-26T07:51:40.449Z,54.65
2019-02-26T07:54:08.932Z,54.62
2019-02-26T07:56:36.019Z,54.84
2019-02-26T07:59:06.792Z,54.89
2019-02-26T08:01:32.260Z,54.54
2019-02-26T08:03:59.333Z,54.37
2019-02-26T08:06:28.799Z,54.45
2019-02-26T08:08:55.358Z,54.26
2019-02-26T08:11:22.428Z,54.19
2019-02-26T08:13:52.486Z,53.57
2019-02-26T08:16:21.323Z,53.68
2019-02-26T08:18:49.455Z,53.58
2019-02-26T08:21:21.732Z,53.48
2019-02-26T08:23:50.546Z,53.23
2019-02-26T08:26:19.846Z,53.38
2019-02-26T08:28:48.174Z,53.27
2019-02-26T08:31:17.810Z,52.98
2019-02-26T08:33:48.640Z,53.12
2019-02-26T08:36:14.098Z,53.05
2019-02-26T08:38:41.375Z,53.00
2019-02-26T08:41:08.457Z,53.24
2019-02-26T08:43:35.513Z,53.04
2019-02-26T08:46:02.586Z,53.07
2019-02-26T08:48:29.648Z,52.91
2019-02-26T08:51:00.775Z,52.27
2019-02-26T08:53:26.643Z,52.20
2019-02-26T08:55:56.273Z,51.81
2019-02-26T08:58:25.714Z,51.20
2019-02-26T09:00:52.564Z,50.67
2019-02-26T09:03:20.418Z,50.46
2019-02-26T09:05:49.290Z,50.73
2019-02-26T09:08:18.205Z,50.83
2019-02-26T09:10:46.941Z,50.64
2019-02-26T09:13:16.327Z,50.72
2019-02-26T09:15:43.370Z,50.88
2019-02-26T09:18:10.434Z,50.23
2019-02-26T09:20:37.503Z,49.90
2019-02-26T09:23:04.575Z,50.29
2019-02-26T09:25:33.984Z,50.66
2019-02-26T09:28:01.255Z,50.44
2019-02-26T09:30:31.002Z,49.50
2019-02-26T09:32:59.125Z,49.16
2019-02-26T09:35:28.866Z,49.41
2019-02-26T09:37:57.884Z,48.03
2019-02-26T09:40:29.013Z,48.42
2019-02-26T09:42:58.124Z,48.90
2019-02-26T09:45:28.609Z,48.68
2019-02-26T09:47:55.870Z,49.08
2019-02-26T09:50:23.125Z,49.37
2019-02-26T09:52:50.826Z,49.33
2019-02-26T09:55:19.489Z,49.31
2019-02-26T09:57:46.635Z,49.67
2019-02-26T10:00:16.836Z,49.87
2019-02-26T10:02:49.490Z,49.89
2019-02-26T10:05:18.285Z,49.56
2019-02-26T10:07:48.485Z,49.73
2019-02-26T10:10:16.293Z,49.24
2019-02-26T10:12:43.355Z,48.27
2019-02-26T10:15:11.324Z,48.48
2019-02-26T10:17:40.943Z,48.32
2019-02-26T10:20:36.800Z,49.00
2019-02-26T10:23:06.180Z,49.34
2019-02-26T10:25:34.957Z,49.61
2019-02-26T10:28:08.676Z,48.81
2019-02-26T10:30:36.972Z,48.85
2019-02-26T10:33:06.425Z,48.90
2019-02-26T10:35:36.066Z,49.09
2019-02-26T10:38:05.165Z,49.13
2019-02-26T10:40:35.555Z,48.83
2019-02-26T10:43:01.545Z,48.79
2019-02-26T10:45:28.851Z,49.02
2019-02-26T10:47:56.913Z,48.46
2019-02-26T10:50:29.886Z,48.43
2019-02-26T10:52:57.847Z,47.97
2019-02-26T10:55:53.651Z,48.26
2019-02-26T10:58:20.851Z,47.15
2019-02-26T11:00:53.194Z,47.86
2019-02-26T11:03:20.460Z,47.02
2019-02-26T11:05:48.783Z,47.23
2019-02-26T11:08:16.495Z,47.31
2019-02-26T11:10:44.915Z,47.39
2019-02-26T11:13:17.721Z,47.30
2019-02-26T11:15:45.621Z,47.88
2019-02-26T11:18:15.134Z,48.09
2019-02-26T11:20:41.688Z,48.04
2019-02-26T11:23:11.144Z,48.19
2019-02-26T11:25:37.805Z,48.16
2019-02-26T11:28:07.399Z,48.13
2019-02-26T11:30:33.835Z,47.83
2019-02-26T11:33:04.753Z,47.75
2019-02-26T11:35:29.955Z,47.72
2019-02-26T11:37:58.127Z,47.92
2019-02-26T11:40:27.645Z,47.79
2019-02-26T11:42:54.285Z,47.80
2019-02-26T11:45:21.547Z,47.82
2019-02-26T11:47:48.608Z,46.37
2019-02-26T11:50:16.290Z,46.91
2019-02-26T11:52:43.405Z,47.50
2019-02-26T11:55:11.339Z,46.99
2019-02-26T11:57:39.868Z,46.97
2019-02-26T12:00:13.955Z,47.58
2019-02-26T12:02:43.570Z,47.86
2019-02-26T12:05:10.814Z,47.85
2019-02-26T12:07:37.940Z,47.12
2019-02-26T12:10:09.525Z,46.32
2019-02-26T12:12:36.832Z,47.13
2019-02-26T12:15:06.790Z,47.43
2019-02-26T12:17:35.713Z,47.22
2019-02-26T12:20:02.901Z,47.48
2019-02-26T12:22:29.986Z,47.57
2019-02-26T12:24:58.857Z,47.51
2019-02-26T12:27:26.004Z,47.70
2019-02-26T12:29:54.576Z,47.75
2019-02-26T12:32:22.351Z,47.80
2019-02-26T12:34:51.454Z,47.31
2019-02-26T12:37:18.601Z,47.15
2019-02-26T12:39:47.342Z,47.38
2019-02-26T12:42:15.959Z,46.77
2019-02-26T12:44:45.498Z,47.33
2019-02-26T12:47:14.696Z,47.65
2019-02-26T12:49:44.272Z,47.88
2019-02-26T12:52:10.459Z,48.07
2019-02-26T12:54:39.964Z,48.22
2019-02-26T12:57:06.483Z,48.33
2019-02-26T12:59:33.557Z,48.26
2019-02-26T13:02:00.632Z,48.21
2019-02-26T13:04:27.693Z,47.96
2019-02-26T13:06:54.751Z,47.60
2019-02-26T13:09:26.592Z,47.32
2019-02-26T13:12:01.123Z,47.69
2019-02-26T13:14:20.233Z,47.52
2019-02-26T13:16:48.830Z,47.50
2019-02-26T13:19:21.473Z,47.75
2019-02-26T13:21:45.249Z,47.33
2019-02-26T13:24:17.071Z,47.53
2019-02-26T13:26:43.536Z,47.37
2019-02-26T13:29:10.227Z,47.56
2019-02-26T13:31:44.831Z,47.83
2019-02-26T13:34:06.321Z,47.95
2019-02-26T13:39:04.116Z,48.15
2019-02-26T13:41:38.407Z,47.78
2019-02-26T13:44:00.208Z,47.88
2019-02-26T13:46:27.259Z,48.02
2019-02-26T13:48:54.322Z,48.13
2019-02-26T13:51:21.484Z,47.99
2019-02-26T13:53:48.540Z,47.30
2019-02-26T13:56:15.617Z,46.50
2019-02-26T13:58:42.775Z,46.56
2019-02-26T14:01:09.880Z,46.48
2019-02-26T14:03:36.952Z,46.76
2019-02-26T14:06:04.005Z,46.80
2019-02-26T14:08:31.072Z,46.84
2019-02-26T14:10:58.143Z,46.61
2019-02-26T14:13:25.209Z,46.87
2019-02-26T14:15:52.278Z,46.68
2019-02-26T14:18:19.339Z,46.72
2019-02-26T14:20:46.409Z,46.81
2019-02-26T14:23:13.471Z,47.00
2019-02-26T14:25:40.840Z,47.21
2019-02-26T14:28:07.906Z,47.29
2019-02-26T14:30:34.971Z,47.58
2019-02-26T14:33:02.046Z,47.28
2019-02-26T14:35:29.138Z,47.19
2019-02-26T14:37:56.205Z,47.45
2019-02-26T14:40:23.269Z,47.53
2019-02-26T14:42:52.939Z,47.84
2019-02-26T14:45:20.016Z,47.65
2019-02-26T14:47:47.112Z,47.81
2019-02-26T14:50:15.011Z,48.00
2019-02-26T14:52:42.262Z,48.13
2019-02-26T14:55:09.978Z,48.26
2019-02-26T14:57:41.813Z,48.38
2019-02-26T15:00:27.154Z,48.54
2019-02-26T15:02:54.376Z,48.58
2019-02-26T15:05:21.486Z,48.68
2019-02-26T15:07:48.560Z,48.75
2019-02-26T15:10:15.773Z,48.79
2019-02-26T15:12:42.901Z,48.86
2019-02-26T15:15:11.103Z,48.94
2019-02-26T15:17:38.223Z,49.07
2019-02-26T15:20:07.278Z,49.25
2019-02-26T15:22:34.343Z,49.42
2019-02-26T15:25:01.412Z,49.52
2019-02-26T15:27:35.997Z,49.51
2019-02-26T15:29:59.618Z,49.54
2019-02-26T15:32:26.870Z,49.58
2019-02-26T15:34:53.969Z,49.65
2019-02-26T15:37:21.092Z,49.71
2019-02-26T15:39:48.159Z,49.85
2019-02-26T15:42:15.218Z,49.98
2019-02-26T15:44:42.374Z,50.08
2019-02-26T15:47:09.448Z,50.12
2019-02-26T15:49:37.777Z,50.13
2019-02-26T15:52:05.347Z,50.19
2019-02-26T15:54:32.741Z,50.30
2019-02-26T15:57:00.445Z,50.44
2019-02-26T15:59:28.107Z,50.55
2019-02-26T16:01:55.550Z,50.59
2019-02-26T16:04:23.161Z,50.74
2019-02-26T16:06:50.230Z,50.93
2019-02-26T16:09:17.294Z,51.08
2019-02-26T16:11:44.367Z,51.12
2019-02-26T16:14:11.448Z,51.16
2019-02-26T16:16:38.534Z,51.19
2019-02-26T16:19:05.602Z,51.21
2019-02-26T16:21:32.663Z,51.31
2019-02-26T16:23:59.770Z,51.40
2019-02-26T16:26:26.842Z,51.47
2019-02-26T16:28:56.525Z,51.60
2019-02-26T16:31:23.783Z,51.68
2019-02-26T16:33:50.874Z,51.77
2019-02-26T16:36:18.058Z,51.86
2019-02-26T16:38:45.155Z,52.00
2019-02-26T16:41:12.229Z,52.04
2019-02-26T16:43:39.310Z,52.21
2019-02-26T16:46:08.528Z,52.31
2019-02-26T16:48:35.669Z,52.37
2019-02-26T16:51:04.064Z,52.56
2019-02-26T16:53:33.497Z,52.59
2019-02-26T16:56:00.114Z,52.56
2019-02-26T16:58:28.540Z,52.66
2019-02-26T17:00:58.609Z,52.93
2019-02-26T17:03:26.075Z,53.31
2019-02-26T17:05:53.148Z,53.41
2019-02-26T17:08:20.219Z,53.40
2019-02-26T17:10:47.419Z,53.40
2019-02-26T17:13:14.486Z,53.42
2019-02-26T17:15:41.758Z,53.60
2019-02-26T17:18:09.827Z,53.81
2019-02-26T17:20:37.499Z,54.04
2019-02-26T17:23:04.595Z,54.17
2019-02-26T17:25:31.669Z,54.36
2019-02-26T17:27:58.723Z,54.56
2019-02-26T17:30:27.808Z,54.68
2019-02-26T17:32:54.922Z,54.83
2019-02-26T17:35:21.990Z,54.97
2019-02-26T17:37:49.074Z,54.94
2019-02-26T17:40:16.708Z,54.93
2019-02-26T17:42:43.799Z,54.90
2019-02-26T17:45:13.112Z,54.79
2019-02-26T17:47:41.979Z,54.85
2019-02-26T17:50:12.597Z,54.77
2019-02-26T17:52:39.729Z,54.90
2019-02-26T17:55:09.171Z,54.90
2019-02-26T17:57:36.076Z,54.87
2019-02-26T18:00:04.672Z,54.73
2019-02-26T18:02:32.992Z,54.84
2019-02-26T18:05:00.764Z,55.06
2019-02-26T18:07:29.088Z,55.29
2019-02-26T18:09:56.436Z,55.52
2019-02-26T18:12:23.532Z,55.75
2019-02-26T18:14:50.599Z,55.77
2019-02-26T18:17:17.670Z,55.71
2019-02-26T18:19:49.461Z,55.58
2019-02-26T18:22:21.602Z,55.43
2019-02-26T18:24:48.261Z,55.36
2019-02-26T18:27:15.656Z,55.25
2019-02-26T18:29:42.743Z,55.24
2019-02-26T18:32:11.244Z,55.18
2019-02-26T18:34:38.828Z,55.16
2019-02-26T18:37:05.940Z,55.17
2019-02-26T18:39:33.023Z,55.18
2019-02-26T18:42:00.103Z,55.18
2019-02-26T18:44:27.287Z,55.15
2019-02-26T18:46:54.359Z,55.18
2019-02-26T18:49:22.403Z,55.12
2019-02-26T18:51:49.851Z,55.17
2019-02-26T18:54:17.725Z,55.35
2019-02-26T18:56:46.065Z,55.47
2019-02-26T18:59:13.296Z,55.43
2019-02-26T19:01:40.367Z,55.34
2019-02-26T19:04:07.439Z,55.26
2019-02-26T19:06:34.527Z,55.20
2019-02-26T19:09:01.642Z,55.14
2019-02-26T19:11:28.796Z,55.07
2019-02-26T19:13:55.884Z,55.05
2019-02-26T19:16:22.965Z,55.01
2019-02-26T19:18:50.029Z,55.00
2019-02-26T19:21:17.112Z,54.99
2019-02-26T19:23:45.338Z,55.13
2019-02-26T19:26:13.852Z,55.34
2019-02-26T19:28:41.418Z,55.46
2019-02-26T19:31:11.164Z,55.47
2019-02-26T19:33:40.013Z,55.44
2019-02-26T19:36:07.223Z,55.36
2019-02-26T19:38:37.970Z,55.31
2019-02-26T19:41:13.151Z,55.27
2019-02-26T19:43:41.734Z,55.23
2019-02-26T19:46:10.349Z,55.33
2019-02-26T19:48:40.131Z,55.40
2019-02-26T19:51:09.018Z,55.40
2019-02-26T19:53:38.529Z,55.38
2019-02-26T19:56:05.631Z,55.39
2019-02-26T19:58:40.796Z,55.40
2019-02-26T20:01:11.050Z,55.39
2019-02-26T20:03:40.147Z,55.36
2019-02-26T20:06:07.079Z,55.34
2019-02-26T20:08:34.143Z,55.33
2019-02-26T20:11:01.216Z,55.32
2019-02-26T20:13:28.333Z,55.32
2019-02-26T20:15:55.452Z,55.35
2019-02-26T20:18:25.807Z,55.31
2019-02-26T20:20:52.551Z,55.33
2019-02-26T20:23:19.623Z,55.30
2019-02-26T20:25:46.951Z,55.30
2019-02-26T20:28:14.056Z,55.31
2019-02-26T20:30:41.121Z,55.30
2019-02-26T20:33:08.224Z,55.21
2019-02-26T20:35:36.730Z,55.25
2019-02-26T20:38:03.809Z,55.26
2019-02-26T20:40:30.894Z,55.29
2019-02-26T20:43:01.428Z,55.24
2019-02-26T20:45:28.744Z,55.23
2019-02-26T20:47:57.110Z,55.20
2019-02-26T20:50:24.224Z,55.20
2019-02-26T20:52:51.293Z,55.22
2019-02-26T20:55:19.877Z,55.23
2019-02-26T20:57:47.050Z,55.19
2019-02-26T21:00:15.681Z,55.21
2019-02-26T21:02:42.748Z,55.22
2019-02-26T21:05:10.093Z,55.19
2019-02-26T21:07:37.176Z,55.15
2019-02-26T21:10:04.618Z,55.13
2019-02-26T21:12:31.682Z,55.03
2019-02-26T21:14:58.756Z,54.99
2019-02-26T21:17:26.347Z,54.94
2019-02-26T21:19:53.489Z,54.88
2019-02-26T21:22:22.109Z,54.83
2019-02-26T21:24:49.536Z,54.83
2019-02-26T21:27:16.612Z,54.78
2019-02-26T21:29:43.680Z,54.67
2019-02-26T21:32:10.740Z,54.58
2019-02-26T21:34:37.806Z,54.41
2019-02-26T21:37:04.883Z,54.30
2019-02-26T21:39:31.951Z,54.28
2019-02-26T21:41:59.018Z,54.26
2019-02-26T21:44:26.099Z,54.26
2019-02-26T21:46:55.827Z,54.28
2019-02-26T21:49:22.140Z,54.24
2019-02-26T21:51:49.208Z,54.17
2019-02-26T21:54:16.287Z,54.02
2019-02-26T21:56:43.342Z,53.92
2019-02-26T21:59:10.416Z,53.78
2019-02-26T22:01:37.479Z,53.75
2019-02-26T22:04:04.551Z,53.85
2019-02-26T22:06:31.621Z,53.68
2019-02-26T22:08:58.683Z,53.59
2019-02-26T22:11:25.761Z,53.52
2019-02-26T22:13:52.820Z,53.46
2019-02-26T22:16:19.888Z,53.49
2019-02-26T22:18:46.964Z,53.48
2019-02-26T22:21:14.027Z,53.45
2019-02-26T22:23:41.102Z,53.39
2019-02-26T22:26:08.200Z,53.38
2019-02-26T22:28:35.269Z,53.47
2019-02-26T22:31:02.334Z,53.60
2019-02-26T22:33:30.504Z,53.57
2019-02-26T22:35:59.852Z,53.48
2019-02-26T22:38:26.547Z,53.59
2019-02-26T22:40:53.612Z,53.62
2019-02-26T22:43:20.695Z,53.47
2019-02-26T22:45:47.816Z,53.52
2019-02-26T22:48:14.872Z,53.48
2019-02-26T22:50:41.930Z,53.40
2019-02-26T22:53:08.999Z,53.39
2019-02-26T22:55:36.066Z,53.57
2019-02-26T22:58:03.398Z,53.55
2019-02-26T23:00:55.795Z,53.59
2019-02-26T23:03:22.969Z,53.53
2019-02-26T23:05:58.761Z,53.41
2019-02-26T23:08:23.916Z,53.55
2019-02-26T23:10:56.915Z,53.58
2019-02-26T23:13:25.151Z,53.60
2019-02-26T23:15:55.959Z,53.74
2019-02-26T23:18:28.439Z,53.83
2019-02-26T23:20:59.739Z,53.91
2019-02-26T23:23:28.915Z,54.02
2019-02-26T23:25:56.168Z,53.95
2019-02-26T23:28:23.479Z,53.99
2019-02-26T23:30:50.693Z,54.08
2019-02-26T23:33:23.046Z,54.16
2019-02-26T23:35:54.832Z,54.19
2019-02-26T23:38:21.447Z,54.22
2019-02-26T23:40:48.796Z,54.24
2019-02-26T23:43:17.935Z,54.25
2019-02-26T23:45:47.467Z,54.27
2019-02-26T23:48:20.178Z,54.32
2019-02-26T23:50:52.356Z,54.45
2019-02-26T23:53:23.567Z,54.50
2019-02-26T23:55:50.944Z,54.47
2019-02-26T23:58:20.561Z,54.56
